createdAt,value
2022-12-27T00:00:59.687Z,4.78
2022-12-27T00:03:27.635Z,4.69
2022-12-27T00:05:55.755Z,4.81
2022-12-27T00:08:25.173Z,4.80
2022-12-27T00:10:53.112Z,4.75
2022-12-27T00:13:21.158Z,4.74
2022-12-27T00:15:49.025Z,4.78
2022-12-27T00:18:16.879Z,4.79
2022-12-27T00:20:44.848Z,4.78
2022-12-27T00:23:13.232Z,4.75
2022-12-27T00:25:42.489Z,4.57
2022-12-27T00:28:10.572Z,4.80
2022-12-27T00:30:38.476Z,4.86
2022-12-27T00:33:06.359Z,4.60
2022-12-27T00:35:34.181Z,4.58
2022-12-27T00:38:02.199Z,4.63
2022-12-27T00:40:30.267Z,4.55
2022-12-27T00:42:59.781Z,4.62
2022-12-27T00:45:27.759Z,4.58
2022-12-27T00:47:55.839Z,4.70
2022-12-27T00:50:23.742Z,4.67
2022-12-27T00:52:51.964Z,4.67
2022-12-27T00:55:19.894Z,4.69
2022-12-27T00:57:48.068Z,4.55
2022-12-27T01:00:18.191Z,4.46
2022-12-27T01:02:46.564Z,4.63
2022-12-27T01:05:14.553Z,4.72
2022-12-27T01:07:42.411Z,4.63
2022-12-27T01:10:11.115Z,4.72
2022-12-27T01:12:39.011Z,4.76
2022-12-27T01:15:08.263Z,4.92
2022-12-27T01:17:37.599Z,4.72
2022-12-27T01:20:06.357Z,4.60
2022-12-27T01:22:34.236Z,4.63
2022-12-27T01:25:02.008Z,4.76
2022-12-27T01:27:29.820Z,4.78
2022-12-27T01:29:57.756Z,4.76
2022-12-27T01:32:25.755Z,4.70
2022-12-27T01:34:55.124Z,4.80
2022-12-27T01:37:23.019Z,4.81
2022-12-27T01:39:50.893Z,4.71
2022-12-27T01:42:40.433Z,4.51
2022-12-27T01:45:15.800Z,4.62
2022-12-27T01:47:50.494Z,4.72
2022-12-27T01:50:26.587Z,4.49
2022-12-27T01:53:03.435Z,4.65
2022-12-27T01:55:36.089Z,4.70
2022-12-27T01:58:07.968Z,4.67
2022-12-27T02:00:36.148Z,4.59
2022-12-27T02:03:07.078Z,4.54
2022-12-27T02:05:41.724Z,4.63
2022-12-27T02:08:34.739Z,4.67
2022-12-27T02:11:04.272Z,4.68
2022-12-27T02:13:35.803Z,4.35
2022-12-27T02:16:03.796Z,4.52
2022-12-27T02:18:31.661Z,4.51
2022-12-27T02:21:52.149Z,4.55
2022-12-27T02:24:46.594Z,4.55
2022-12-27T02:27:28.208Z,4.51
2022-12-27T02:30:04.082Z,4.58
2022-12-27T02:32:37.532Z,4.62
2022-12-27T02:35:13.589Z,4.48
2022-12-27T02:37:47.134Z,4.54
2022-12-27T02:40:35.391Z,4.72
2022-12-27T02:43:21.647Z,4.65
2022-12-27T02:46:21.270Z,4.64
2022-12-27T02:49:12.057Z,4.92
2022-12-27T02:52:16.063Z,4.81
2022-12-27T02:55:03.329Z,4.64
2022-12-27T02:57:38.837Z,4.65
2022-12-27T03:00:29.186Z,4.59
2022-12-27T03:03:24.901Z,4.74
2022-12-27T03:06:38.867Z,4.51
2022-12-27T03:09:40.160Z,4.50
2022-12-27T03:12:30.563Z,4.63
2022-12-27T03:15:24.746Z,4.64
2022-12-27T03:18:07.725Z,4.57
2022-12-27T03:21:06.991Z,4.61
2022-12-27T03:23:53.688Z,4.66
2022-12-27T03:26:24.044Z,4.53
2022-12-27T03:29:10.957Z,4.58
2022-12-27T03:32:00.051Z,4.62
2022-12-27T03:34:36.083Z,4.54
2022-12-27T03:37:24.377Z,4.63
2022-12-27T03:40:02.765Z,4.47
2022-12-27T03:42:51.092Z,4.46
2022-12-27T03:45:21.796Z,4.38
2022-12-27T03:47:55.622Z,4.55
2022-12-27T03:50:30.075Z,4.47
2022-12-27T03:53:02.840Z,4.63
2022-12-27T03:55:33.494Z,4.54
2022-12-27T03:58:01.763Z,4.57
2022-12-27T04:00:29.889Z,4.68
2022-12-27T04:02:58.484Z,4.56
2022-12-27T04:05:27.856Z,4.63
2022-12-27T04:08:13.152Z,4.66
2022-12-27T04:10:58.586Z,4.68
2022-12-27T04:13:43.890Z,4.72
2022-12-27T04:16:29.563Z,4.62
2022-12-27T04:19:15.751Z,4.69
2022-12-27T04:22:02.699Z,4.79
2022-12-27T04:24:47.957Z,4.65
2022-12-27T04:27:33.175Z,4.54
2022-12-27T04:30:18.605Z,4.71
2022-12-27T04:33:04.389Z,4.53
2022-12-27T04:35:32.217Z,4.68
2022-12-27T04:38:01.545Z,4.84
2022-12-27T04:40:47.140Z,4.61
2022-12-27T04:43:32.419Z,4.68
2022-12-27T04:46:17.732Z,4.62
2022-12-27T04:49:02.963Z,4.58
2022-12-27T04:51:48.290Z,4.69
2022-12-27T04:54:43.302Z,4.74
2022-12-27T04:57:11.139Z,4.82
2022-12-27T04:59:56.248Z,4.85
2022-12-27T05:02:24.485Z,4.91
2022-12-27T05:04:52.540Z,4.79
2022-12-27T05:07:37.749Z,4.65
2022-12-27T05:10:25.883Z,4.83
2022-12-27T05:13:11.263Z,4.81
2022-12-27T05:15:39.194Z,4.61
2022-12-27T05:18:07.324Z,4.66
2022-12-27T05:20:35.878Z,4.70
2022-12-27T05:23:21.171Z,4.79
2022-12-27T05:25:50.616Z,4.76
2022-12-27T05:28:18.432Z,4.69
2022-12-27T05:30:46.275Z,4.74
2022-12-27T05:33:14.115Z,4.76
2022-12-27T05:35:42.402Z,4.76
2022-12-27T05:38:10.219Z,4.73
2022-12-27T05:40:38.071Z,4.74
2022-12-27T05:43:07.328Z,4.83
2022-12-27T05:45:35.214Z,4.84
2022-12-27T05:48:03.064Z,4.77
2022-12-27T05:50:30.912Z,4.86
2022-12-27T05:53:10.964Z,5.01
2022-12-27T05:55:38.945Z,4.99
2022-12-27T05:58:09.157Z,4.79
2022-12-27T06:00:37.029Z,4.79
2022-12-27T06:03:05.305Z,4.85
2022-12-27T06:05:33.306Z,4.70
2022-12-27T06:08:01.859Z,4.70
2022-12-27T06:10:29.988Z,4.78
2022-12-27T06:13:00.760Z,4.64
2022-12-27T06:15:30.616Z,4.68
2022-12-27T06:17:59.388Z,4.67
2022-12-27T06:20:27.860Z,4.60
2022-12-27T06:22:55.690Z,4.74
2022-12-27T06:25:23.599Z,4.76
2022-12-27T06:27:51.499Z,4.53
2022-12-27T06:30:19.413Z,4.52
2022-12-27T06:32:48.721Z,4.48
2022-12-27T06:35:16.943Z,4.38
2022-12-27T06:37:44.831Z,4.48
2022-12-27T06:40:13.363Z,4.47
2022-12-27T06:42:41.353Z,4.46
2022-12-27T06:45:10.469Z,4.52
2022-12-27T06:47:38.505Z,4.42
2022-12-27T06:50:08.495Z,4.48
2022-12-27T06:52:36.615Z,4.45
2022-12-27T06:55:04.754Z,4.47
2022-12-27T06:57:32.610Z,4.39
2022-12-27T07:00:00.377Z,4.46
2022-12-27T07:02:28.299Z,4.49
2022-12-27T07:04:56.180Z,4.35
2022-12-27T07:07:25.491Z,4.48
2022-12-27T07:09:53.358Z,4.57
2022-12-27T07:12:21.303Z,4.53
2022-12-27T07:14:49.194Z,4.39
2022-12-27T07:17:17.381Z,4.38
2022-12-27T07:19:45.340Z,4.54
2022-12-27T07:22:13.060Z,4.47
2022-12-27T07:24:42.338Z,4.52
2022-12-27T07:27:10.238Z,4.38
2022-12-27T07:29:45.102Z,4.34
2022-12-27T07:32:13.552Z,4.59
2022-12-27T07:34:42.853Z,4.43
2022-12-27T07:37:10.812Z,4.53
2022-12-27T07:39:38.772Z,4.66
2022-12-27T07:42:08.759Z,4.65
2022-12-27T07:44:38.698Z,4.68
2022-12-27T07:47:07.819Z,4.62
2022-12-27T07:49:35.743Z,4.55
2022-12-27T07:52:03.723Z,4.65
2022-12-27T07:54:31.625Z,4.57
2022-12-27T07:56:59.414Z,4.60
2022-12-27T07:59:28.711Z,4.84
2022-12-27T08:02:05.447Z,4.59
2022-12-27T08:04:35.020Z,4.81
2022-12-27T08:07:07.162Z,4.71
2022-12-27T08:09:38.715Z,4.74
2022-12-27T08:12:07.473Z,4.72
2022-12-27T08:14:37.334Z,4.76
2022-12-27T08:17:08.422Z,4.78
2022-12-27T08:19:36.437Z,4.88
2022-12-27T08:22:05.243Z,5.39
2022-12-27T08:24:33.439Z,5.38
2022-12-27T08:27:01.535Z,5.98
2022-12-27T08:29:29.536Z,6.21
2022-12-27T08:31:58.847Z,6.35
2022-12-27T08:34:26.694Z,6.49
2022-12-27T08:36:56.225Z,6.47
2022-12-27T08:39:24.780Z,6.43
2022-12-27T08:41:53.931Z,6.23
2022-12-27T08:44:21.847Z,6.08
2022-12-27T08:46:49.781Z,6.67
2022-12-27T08:49:19.237Z,6.08
2022-12-27T08:51:47.230Z,5.93
2022-12-27T08:54:15.065Z,6.20
2022-12-27T08:56:42.891Z,6.09
2022-12-27T08:59:10.796Z,5.85
2022-12-27T09:01:39.035Z,5.95
2022-12-27T09:04:07.133Z,5.95
2022-12-27T09:06:36.469Z,6.46
2022-12-27T09:09:04.314Z,6.68
2022-12-27T09:11:34.344Z,6.91
2022-12-27T09:14:04.326Z,7.57
2022-12-27T09:16:34.637Z,7.64
2022-12-27T09:19:03.980Z,6.95
2022-12-27T09:21:34.271Z,6.85
2022-12-27T09:24:03.972Z,6.45
2022-12-27T09:26:32.105Z,6.52
2022-12-27T09:29:01.493Z,6.34
2022-12-27T09:31:29.678Z,6.22
2022-12-27T09:33:58.076Z,6.25
2022-12-27T09:36:28.503Z,6.34
2022-12-27T09:38:57.782Z,6.31
2022-12-27T09:44:32.342Z,6.18
2022-12-27T09:47:06.003Z,6.16
2022-12-27T09:49:38.836Z,6.29
2022-12-27T09:52:13.310Z,6.32
2022-12-27T09:54:51.649Z,6.38
2022-12-27T09:57:26.957Z,6.31
2022-12-27T09:59:59.881Z,6.57
2022-12-27T10:02:29.909Z,6.49
2022-12-27T10:07:56.915Z,6.41
2022-12-27T10:10:38.273Z,6.42
2022-12-27T10:13:31.062Z,6.48
2022-12-27T10:16:09.066Z,6.56
2022-12-27T10:18:50.065Z,6.62
2022-12-27T10:21:21.736Z,6.83
2022-12-27T10:23:55.780Z,6.69
2022-12-27T10:26:24.420Z,6.59
2022-12-27T10:28:58.655Z,6.73
2022-12-27T10:31:27.429Z,6.71
2022-12-27T10:33:57.036Z,6.72
2022-12-27T10:36:27.667Z,6.70
2022-12-27T10:38:56.070Z,6.77
2022-12-27T10:41:33.732Z,6.93
2022-12-27T10:44:03.237Z,7.18
2022-12-27T10:46:33.960Z,6.99
2022-12-27T10:49:21.616Z,7.18
2022-12-27T10:51:52.469Z,7.09
2022-12-27T10:54:26.182Z,6.87
2022-12-27T10:56:54.562Z,6.88
2022-12-27T10:59:25.346Z,6.93
2022-12-27T11:02:16.532Z,7.05
2022-12-27T11:04:58.993Z,6.91
2022-12-27T11:07:31.581Z,6.90
2022-12-27T11:10:09.771Z,7.21
2022-12-27T11:12:37.799Z,7.08
2022-12-27T11:15:18.726Z,7.17
2022-12-27T11:17:49.293Z,7.02
2022-12-27T11:20:23.039Z,7.15
2022-12-27T11:22:54.708Z,7.15
2022-12-27T11:25:23.684Z,7.18
2022-12-27T11:27:54.718Z,7.13
2022-12-27T11:30:30.975Z,7.27
2022-12-27T11:33:05.743Z,7.24
2022-12-27T11:35:50.692Z,7.41
2022-12-27T11:38:25.503Z,7.43
2022-12-27T11:41:01.021Z,7.48
2022-12-27T11:43:34.532Z,7.51
2022-12-27T11:46:06.832Z,7.58
2022-12-27T11:48:39.503Z,7.79
2022-12-27T11:51:31.293Z,7.83
2022-12-27T11:54:18.631Z,7.64
2022-12-27T11:56:51.596Z,7.65
2022-12-27T11:59:40.231Z,7.91
2022-12-27T12:02:34.978Z,7.73
2022-12-27T12:05:42.017Z,7.56
2022-12-27T12:08:49.713Z,7.42
2022-12-27T12:11:31.431Z,7.57
2022-12-27T12:14:18.659Z,7.57
2022-12-27T12:16:58.246Z,7.38
2022-12-27T12:19:43.487Z,7.62
2022-12-27T12:22:33.655Z,7.35
2022-12-27T12:25:21.158Z,7.42
2022-12-27T12:28:29.940Z,7.31
2022-12-27T12:31:12.551Z,7.44
2022-12-27T12:33:58.604Z,7.34
2022-12-27T12:36:52.275Z,7.32
2022-12-27T12:39:31.728Z,7.40
2022-12-27T12:42:15.002Z,7.47
2022-12-27T12:45:03.104Z,7.49
2022-12-27T12:47:50.650Z,7.17
2022-12-27T12:50:30.711Z,7.38
2022-12-27T12:53:13.794Z,7.35
2022-12-27T12:55:55.203Z,7.37
2022-12-27T12:58:43.329Z,7.18
2022-12-27T13:01:26.912Z,7.86
2022-12-27T13:04:09.444Z,7.47
2022-12-27T13:07:12.828Z,7.35
2022-12-27T13:09:59.369Z,7.38
2022-12-27T13:12:38.588Z,7.36
2022-12-27T13:15:25.200Z,7.19
2022-12-27T13:18:05.358Z,7.27
2022-12-27T13:20:51.469Z,7.54
2022-12-27T13:23:33.523Z,7.41
2022-12-27T13:26:14.646Z,7.43
2022-12-27T13:28:53.426Z,7.29
2022-12-27T13:31:35.560Z,7.14
2022-12-27T13:34:20.173Z,7.15
2022-12-27T13:37:01.136Z,7.32
2022-12-27T13:39:42.473Z,7.27
2022-12-27T13:42:31.791Z,7.26
2022-12-27T13:45:11.124Z,7.17
2022-12-27T13:47:51.633Z,7.28
2022-12-27T13:50:56.072Z,7.12
2022-12-27T13:53:56.306Z,7.06
2022-12-27T13:57:01.426Z,7.29
2022-12-27T13:59:48.848Z,7.23
2022-12-27T14:02:45.496Z,7.31
2022-12-27T14:05:45.508Z,7.40
2022-12-27T14:08:26.937Z,7.23
2022-12-27T14:11:00.867Z,7.29
2022-12-27T14:13:35.448Z,7.35
2022-12-27T14:16:29.148Z,7.38
2022-12-27T14:19:13.830Z,7.42
2022-12-27T14:22:05.222Z,7.38
2022-12-27T14:25:14.054Z,7.36
2022-12-27T14:28:13.919Z,7.18
2022-12-27T14:31:10.746Z,7.22
2022-12-27T14:34:16.641Z,7.39
2022-12-27T14:37:08.568Z,7.29
2022-12-27T14:40:27.582Z,7.16
2022-12-27T14:43:35.071Z,7.28
2022-12-27T14:46:48.200Z,7.08
2022-12-27T14:49:52.278Z,7.08
2022-12-27T14:52:54.522Z,6.85
2022-12-27T14:55:40.519Z,6.82
2022-12-27T14:58:36.532Z,6.81
2022-12-27T15:01:11.733Z,6.89
2022-12-27T15:04:03.781Z,6.89
2022-12-27T15:06:52.237Z,6.70
2022-12-27T15:09:29.793Z,6.79
2022-12-27T15:12:25.182Z,6.75
2022-12-27T15:15:22.848Z,6.66
2022-12-27T15:18:07.397Z,6.89
2022-12-27T15:20:53.978Z,6.80
2022-12-27T15:23:30.200Z,6.77
2022-12-27T15:26:16.286Z,6.77
2022-12-27T15:28:56.869Z,6.62
2022-12-27T15:31:33.370Z,6.72
2022-12-27T15:34:14.161Z,6.67
2022-12-27T15:36:44.013Z,6.62
2022-12-27T15:39:45.380Z,6.74
2022-12-27T15:42:38.788Z,6.75
2022-12-27T15:45:27.047Z,7.25
2022-12-27T15:48:27.004Z,6.81
2022-12-27T15:51:02.076Z,6.72
2022-12-27T15:54:02.840Z,6.82
2022-12-27T15:57:02.972Z,6.69
2022-12-27T15:59:48.502Z,6.71
2022-12-27T16:02:29.519Z,6.87
2022-12-27T16:05:02.156Z,6.89
2022-12-27T16:07:46.425Z,7.10
2022-12-27T16:10:48.675Z,6.76
2022-12-27T16:13:37.657Z,6.95
2022-12-27T16:16:28.252Z,6.90
2022-12-27T16:19:19.389Z,7.01
2022-12-27T16:21:48.066Z,6.83
2022-12-27T16:24:19.830Z,6.91
2022-12-27T16:27:02.297Z,6.89
2022-12-27T16:29:34.181Z,6.88
2022-12-27T16:32:20.368Z,6.85
2022-12-27T16:34:54.256Z,6.83
2022-12-27T16:37:31.359Z,6.73
2022-12-27T16:40:20.919Z,6.80
2022-12-27T16:43:38.003Z,6.83
2022-12-27T16:46:29.833Z,6.77
2022-12-27T16:49:46.135Z,6.82
2022-12-27T16:52:34.196Z,6.99
2022-12-27T16:55:18.973Z,6.85
2022-12-27T16:57:49.521Z,6.82
2022-12-27T17:00:38.599Z,6.67
2022-12-27T17:03:44.510Z,6.60
2022-12-27T17:06:53.986Z,6.60
2022-12-27T17:09:46.123Z,6.76
2022-12-27T17:12:19.861Z,6.52
2022-12-27T17:14:48.694Z,6.44
2022-12-27T17:17:21.097Z,6.60
2022-12-27T17:19:55.903Z,6.61
2022-12-27T17:22:32.139Z,6.49
2022-12-27T17:25:04.181Z,6.63
2022-12-27T17:27:46.943Z,6.50
2022-12-27T17:30:20.635Z,6.55
2022-12-27T17:33:01.269Z,6.66
2022-12-27T17:35:37.072Z,6.57
2022-12-27T17:38:21.110Z,6.44
2022-12-27T17:41:02.442Z,6.53
2022-12-27T17:49:36.165Z,6.46
2022-12-27T17:52:23.155Z,6.47
2022-12-27T17:55:08.690Z,6.54
2022-12-27T17:57:56.609Z,6.57
2022-12-27T18:00:26.555Z,6.44
2022-12-27T18:02:56.605Z,6.50
2022-12-27T18:05:28.777Z,6.36
2022-12-27T18:08:02.741Z,6.35
2022-12-27T18:10:34.308Z,6.30
2022-12-27T18:13:06.648Z,6.34
2022-12-27T18:15:37.954Z,6.31
2022-12-27T18:18:08.420Z,6.37
2022-12-27T18:20:38.760Z,6.17
2022-12-27T18:23:17.201Z,6.26
2022-12-27T18:25:55.356Z,6.18
2022-12-27T18:28:32.632Z,6.01
2022-12-27T18:31:06.587Z,6.04
2022-12-27T18:33:38.722Z,5.96
2022-12-27T18:36:09.006Z,5.95
2022-12-27T18:38:41.283Z,5.93
2022-12-27T18:41:12.328Z,5.90
2022-12-27T18:43:46.950Z,6.07
2022-12-27T18:46:17.640Z,5.81
2022-12-27T18:48:45.947Z,5.75
2022-12-27T18:51:14.112Z,5.92
2022-12-27T18:53:43.999Z,5.67
2022-12-27T18:56:29.372Z,5.80
2022-12-27T18:59:04.456Z,5.73
2022-12-27T19:01:40.630Z,5.75
2022-12-27T19:04:27.136Z,5.78
2022-12-27T19:06:59.445Z,5.73
2022-12-27T19:09:30.353Z,5.75
2022-12-27T19:12:00.872Z,5.59
2022-12-27T19:14:37.145Z,5.61
2022-12-27T19:17:10.369Z,5.63
2022-12-27T19:19:39.534Z,5.57
2022-12-27T19:22:33.944Z,5.47
2022-12-27T19:25:04.808Z,5.52
2022-12-27T19:27:33.102Z,5.46
2022-12-27T19:30:02.570Z,5.59
2022-12-27T19:32:34.426Z,5.52
2022-12-27T19:35:04.567Z,5.44
2022-12-27T19:37:34.987Z,5.29
2022-12-27T19:40:03.100Z,5.33
2022-12-27T19:42:35.015Z,5.41
2022-12-27T19:45:04.848Z,5.47
2022-12-27T19:47:34.841Z,5.37
2022-12-27T19:50:02.931Z,5.44
2022-12-27T19:52:30.888Z,5.38
2022-12-27T19:55:03.294Z,5.40
2022-12-27T19:57:31.590Z,5.33
2022-12-27T19:59:59.515Z,5.23
2022-12-27T20:02:29.693Z,5.30
2022-12-27T20:04:57.848Z,5.38
2022-12-27T20:07:27.468Z,5.17
2022-12-27T20:09:55.517Z,5.32
2022-12-27T20:12:23.831Z,5.22
2022-12-27T20:14:51.867Z,5.25
2022-12-27T20:17:19.713Z,5.09
2022-12-27T20:19:51.687Z,5.31
2022-12-27T20:22:19.759Z,5.18
2022-12-27T20:24:47.738Z,5.00
2022-12-27T20:27:15.706Z,5.02
2022-12-27T20:29:44.065Z,5.06
2022-12-27T20:32:12.063Z,5.07
2022-12-27T20:34:39.956Z,5.05
2022-12-27T20:37:09.323Z,5.03
2022-12-27T20:39:37.283Z,5.10
2022-12-27T20:42:05.551Z,5.04
2022-12-27T20:44:33.479Z,5.12
2022-12-27T20:47:01.579Z,4.96
2022-12-27T20:49:29.582Z,5.03
2022-12-27T20:51:57.550Z,5.03
2022-12-27T20:54:27.084Z,5.08
2022-12-27T20:56:54.967Z,5.04
2022-12-27T20:59:22.940Z,5.01
2022-12-27T21:01:56.795Z,4.97
2022-12-27T21:04:26.742Z,4.97
2022-12-27T21:06:54.829Z,5.01
2022-12-27T21:09:22.834Z,5.02
2022-12-27T21:11:53.719Z,4.95
2022-12-27T21:14:21.747Z,4.99
2022-12-27T21:16:49.731Z,5.11
2022-12-27T21:19:17.823Z,5.08
2022-12-27T21:21:45.835Z,5.15
2022-12-27T21:24:14.356Z,5.18
2022-12-27T21:26:42.672Z,4.96
2022-12-27T21:29:12.335Z,5.06
2022-12-27T21:31:40.328Z,5.03
2022-12-27T21:34:08.283Z,5.05
2022-12-27T21:36:38.335Z,5.01
2022-12-27T21:39:07.492Z,5.13
2022-12-27T21:41:38.106Z,5.11
2022-12-27T21:44:06.651Z,5.07
2022-12-27T21:46:38.140Z,4.99
2022-12-27T21:49:08.476Z,5.02
2022-12-27T21:51:38.632Z,5.24
2022-12-27T21:54:07.657Z,5.08
2022-12-27T21:56:35.990Z,5.13
2022-12-27T21:59:07.270Z,5.00
2022-12-27T22:01:50.610Z,5.06
2022-12-27T22:04:21.104Z,5.18
2022-12-27T22:06:49.267Z,5.21
2022-12-27T22:09:18.955Z,5.16
2022-12-27T22:11:47.013Z,5.08
2022-12-27T22:14:15.105Z,5.04
2022-12-27T22:16:44.630Z,5.05
2022-12-27T22:19:14.499Z,5.01
2022-12-27T22:21:43.569Z,5.15
2022-12-27T22:24:15.469Z,5.08
2022-12-27T22:26:43.387Z,5.04
2022-12-27T22:29:12.262Z,5.20
2022-12-27T22:31:40.310Z,5.20
2022-12-27T22:34:09.877Z,5.30
2022-12-27T22:36:37.890Z,5.12
2022-12-27T22:39:05.989Z,5.20
2022-12-27T22:41:35.165Z,5.05
2022-12-27T22:44:05.373Z,5.21
2022-12-27T22:49:23.575Z,5.00
2022-12-27T22:51:51.700Z,4.98
2022-12-27T22:54:19.586Z,4.94
2022-12-27T22:56:47.467Z,5.07
2022-12-27T22:59:17.349Z,4.92
2022-12-27T23:01:46.217Z,4.88
2022-12-27T23:04:15.099Z,4.92
2022-12-27T23:06:45.258Z,4.97
2022-12-27T23:09:13.231Z,4.94
2022-12-27T23:11:42.147Z,5.16
2022-12-27T23:14:12.892Z,5.08
2022-12-27T23:16:43.692Z,4.99
2022-12-27T23:19:12.738Z,4.96
2022-12-27T23:21:40.958Z,5.11
2022-12-27T23:24:11.124Z,4.90
2022-12-27T23:26:40.036Z,5.09
2022-12-27T23:29:08.013Z,5.10
2022-12-27T23:31:36.294Z,5.17
2022-12-27T23:34:27.604Z,5.18
2022-12-27T23:36:56.967Z,5.24
2022-12-27T23:39:26.663Z,5.31
2022-12-27T23:41:54.894Z,5.30
2022-12-27T23:44:33.388Z,5.25
2022-12-27T23:47:04.173Z,5.40
2022-12-27T23:49:32.231Z,5.34
2022-12-27T23:52:00.198Z,5.62
2022-12-27T23:54:29.677Z,5.53
2022-12-27T23:56:57.780Z,5.53
2022-12-27T23:59:25.891Z,5.56
